Time;durP1;ratioP1;P1;durP2;ratioP2;P2;SDS_P1;SDS_P2;PMS_P1;PMS_P2;Temp;Humidity;BMP_temperature;BMP_pressure;BME280_temperature;BME280_humidity;BME280_pressure;Samples;Min_cycle;Max_cycle;Signal;HPM_P1;HPM_P2
2022/04/30 00:00:50;;;;;;;;;;;8.20;99.90;;;;;;4984444;28;19924;-60
2022/04/30 00:03:16;;;;;;;;;;;8.10;99.90;;;;;;4985247;28;19996;-61
2022/04/30 00:05:41;;;;;;;;;;;7.90;99.90;;;;;;4984888;28;19964;-61
2022/04/30 00:08:07;;;;;;;;;;;8.00;99.90;;;;;;4984237;28;20369;-61
2022/04/30 00:10:37;;;;;;;;;;;7.90;99.90;;;;;;4985763;28;19906;-61
2022/04/30 00:13:04;;;;;;;;;;;7.80;99.90;;;;;;4988312;28;20316;-61
2022/04/30 00:15:30;;;;;;;;;;;7.80;99.90;;;;;;4985143;28;20389;-61
2022/04/30 00:17:55;;;;;;;;;;;7.70;99.90;;;;;;4985104;28;19909;-61
2022/04/30 00:20:21;;;;;;;;;;;7.60;99.90;;;;;;4989858;28;19917;-61
2022/04/30 00:22:46;;;;;;;;;;;7.70;99.90;;;;;;4987945;28;20012;-61
2022/04/30 00:25:14;;;;;;;;;;;7.60;99.90;;;;;;4988331;28;19913;-61
2022/04/30 00:27:39;;;;;;;;;;;7.60;99.90;;;;;;4988428;28;19914;-61
2022/04/30 00:30:05;;;;;;;;;;;7.60;99.90;;;;;;4986943;28;19924;-61
2022/04/30 00:32:30;;;;;;;;;;;7.60;99.90;;;;;;4988189;28;20281;-61
2022/04/30 00:34:56;;;;;;;;;;;7.60;99.90;;;;;;5016977;28;19944;-61
2022/04/30 00:37:21;;;;;;;;;;;7.70;99.90;;;;;;4985892;28;19910;-61
2022/04/30 00:39:48;;;;;;;;;;;7.70;99.90;;;;;;4988142;28;20409;-61
2022/04/30 00:42:14;;;;;;;;;;;7.80;99.90;;;;;;4988736;28;19964;-61
2022/04/30 00:44:39;;;;;;;;;;;7.90;99.90;;;;;;4987407;28;20330;-61
2022/04/30 00:47:05;;;;;;;;;;;7.80;99.90;;;;;;4987130;28;20259;-61
2022/04/30 00:49:30;;;;;;;;;;;7.60;99.90;;;;;;4988632;28;20388;-61
2022/04/30 00:52:01;;;;;;;;;;;7.60;99.90;;;;;;4988163;28;19910;-60
2022/04/30 00:54:28;;;;;;;;;;;7.60;99.90;;;;;;5017000;28;19956;-61
2022/04/30 00:56:58;;;;;;;;;;;7.50;99.90;;;;;;4987149;28;19968;-61
2022/04/30 00:59:24;;;;;;;;;;;7.50;99.90;;;;;;4986007;28;19914;-61
2022/04/30 01:01:50;;;;;;;;;;;7.40;99.90;;;;;;4986964;28;19914;-61
2022/04/30 01:04:16;;;;;;;;;;;7.30;99.90;;;;;;4988118;28;20284;-61
2022/04/30 01:06:50;;;;;;;;;;;7.50;99.90;;;;;;4986414;28;19965;-59
2022/04/30 01:09:16;;;;;;;;;;;7.50;99.90;;;;;;4985620;28;19913;-61
2022/04/30 01:11:42;;;;;;;;;;;7.60;99.90;;;;;;4987013;28;20274;-61
2022/04/30 01:14:07;;;;;;;;;;;7.60;99.90;;;;;;4988289;28;19914;-61
2022/04/30 01:16:35;;;;;;;;;;;7.60;99.90;;;;;;4987467;28;20351;-61
2022/04/30 01:19:01;;;;;;;;;;;7.60;99.90;;;;;;4987448;28;19956;-61
2022/04/30 01:21:28;;;;;;;;;;;7.40;99.90;;;;;;4984984;28;19952;-61
2022/04/30 01:23:54;;;;;;;;;;;7.40;99.90;;;;;;5016179;28;20325;-61
2022/04/30 01:26:22;;;;;;;;;;;7.50;99.90;;;;;;4984825;28;19917;-61
2022/04/30 01:28:48;;;;;;;;;;;7.40;99.90;;;;;;4984287;28;20009;-61
2022/04/30 01:39:26;;;;;;;;;;;7.10;99.90;;;;;;4987418;28;20349;-61
2022/04/30 01:41:52;;;;;;;;;;;7.00;99.90;;;;;;4987820;28;19935;-60
2022/04/30 01:44:19;;;;;;;;;;;7.00;99.90;;;;;;4985829;28;19916;-60
2022/04/30 01:46:46;;;;;;;;;;;6.80;99.90;;;;;;4986387;28;20047;-61
2022/04/30 01:49:15;;;;;;;;;;;6.80;99.90;;;;;;4986771;28;20035;-60
2022/04/30 01:51:48;;;;;;;;;;;6.80;99.90;;;;;;4986733;28;19909;-60
2022/04/30 01:54:14;;;;;;;;;;;6.80;99.90;;;;;;4994599;28;20369;-61
2022/04/30 01:56:39;;;;;;;;;;;6.70;99.90;;;;;;4986932;28;19968;-59
2022/04/30 01:59:05;;;;;;;;;;;6.70;99.90;;;;;;4984906;28;19960;-59
2022/04/30 02:01:32;;;;;;;;;;;6.60;99.90;;;;;;4985794;28;19925;-60
2022/04/30 02:03:58;;;;;;;;;;;6.50;99.90;;;;;;4986069;28;19909;-59
2022/04/30 02:06:23;;;;;;;;;;;6.40;99.90;;;;;;4980328;28;19960;-59
2022/04/30 02:08:49;;;;;;;;;;;6.40;99.90;;;;;;4985952;28;19918;-61
2022/04/30 02:11:14;;;;;;;;;;;6.30;99.90;;;;;;4986771;28;19953;-59
2022/04/30 02:13:40;;;;;;;;;;;6.30;99.90;;;;;;4988987;28;20429;-59
2022/04/30 02:16:06;;;;;;;;;;;6.30;99.90;;;;;;5018050;28;19910;-59
2022/04/30 02:18:33;;;;;;;;;;;6.30;99.90;;;;;;4986587;28;20346;-61
2022/04/30 02:20:59;;;;;;;;;;;6.30;99.90;;;;;;4986344;28;19905;-61
2022/04/30 02:23:24;;;;;;;;;;;6.30;99.90;;;;;;4987485;28;19933;-59
2022/04/30 02:25:51;;;;;;;;;;;6.20;99.90;;;;;;4981882;28;20370;-61
2022/04/30 02:28:17;;;;;;;;;;;6.10;99.90;;;;;;4984015;28;20208;-61
2022/04/30 02:30:43;;;;;;;;;;;6.10;99.90;;;;;;4982328;28;19909;-59
2022/04/30 02:33:12;;;;;;;;;;;6.10;99.90;;;;;;4985868;28;20321;-61
2022/04/30 02:35:39;;;;;;;;;;;6.10;99.90;;;;;;4986335;28;19909;-61
2022/04/30 02:38:08;;;;;;;;;;;6.00;99.90;;;;;;4985828;28;20012;-61
2022/04/30 02:40:34;;;;;;;;;;;6.10;99.90;;;;;;4985227;28;19910;-61
2022/04/30 02:43:10;;;;;;;;;;;6.10;99.90;;;;;;4985534;28;19925;-59
2022/04/30 02:45:37;;;;;;;;;;;6.00;99.90;;;;;;4995036;28;19914;-61
2022/04/30 02:48:03;;;;;;;;;;;5.90;99.90;;;;;;4985210;28;19917;-61
2022/04/30 02:50:29;;;;;;;;;;;5.90;99.90;;;;;;5018019;28;20415;-61
2022/04/30 02:52:55;;;;;;;;;;;5.90;99.90;;;;;;4987678;28;19912;-61
2022/04/30 02:55:21;;;;;;;;;;;5.90;99.90;;;;;;4989131;28;20395;-61
2022/04/30 03:00:39;;;;;;;;;;;5.80;99.90;;;;;;4986016;28;19920;-61
2022/04/30 03:03:05;;;;;;;;;;;5.80;99.90;;;;;;5001754;28;20290;-61
2022/04/30 03:05:31;;;;;;;;;;;5.80;99.90;;;;;;4986502;28;19913;-61
2022/04/30 03:07:57;;;;;;;;;;;5.80;99.90;;;;;;4984626;28;19917;-61
2022/04/30 03:10:23;;;;;;;;;;;5.90;99.90;;;;;;4986988;28;19916;-61
2022/04/30 03:12:49;;;;;;;;;;;6.00;99.90;;;;;;4993220;28;19909;-60
2022/04/30 03:15:16;;;;;;;;;;;6.10;99.90;;;;;;4986092;28;19910;-60
2022/04/30 03:23:09;;;;;;;;;;;6.20;99.90;;;;;;4983755;28;19959;-61
2022/04/30 03:25:35;;;;;;;;;;;6.20;99.90;;;;;;4985873;28;19913;-59
2022/04/30 03:28:00;;;;;;;;;;;6.20;99.90;;;;;;5013496;28;19910;-61
2022/04/30 03:30:26;;;;;;;;;;;6.10;99.90;;;;;;4984203;28;19964;-61
2022/04/30 03:32:52;;;;;;;;;;;6.10;99.90;;;;;;4986121;28;19913;-61
2022/04/30 03:35:17;;;;;;;;;;;6.10;99.90;;;;;;4988072;28;20009;-61
2022/04/30 03:37:43;;;;;;;;;;;6.20;99.90;;;;;;4986662;28;19996;-61
2022/04/30 03:40:09;;;;;;;;;;;6.30;99.90;;;;;;4985483;28;20437;-61
2022/04/30 03:42:34;;;;;;;;;;;6.30;99.90;;;;;;4986186;28;19910;-61
2022/04/30 03:45:02;;;;;;;;;;;6.30;99.90;;;;;;4994147;28;19920;-60
2022/04/30 03:47:27;;;;;;;;;;;6.30;99.90;;;;;;4985313;28;19910;-60
2022/04/30 03:49:53;;;;;;;;;;;6.20;99.90;;;;;;4984749;28;19920;-60
2022/04/30 03:52:18;;;;;;;;;;;6.30;99.90;;;;;;4985633;28;20004;-60
2022/04/30 03:54:44;;;;;;;;;;;6.20;99.90;;;;;;4988125;28;20293;-61
2022/04/30 03:57:09;;;;;;;;;;;6.20;99.90;;;;;;4989288;28;19917;-61
2022/04/30 03:59:35;;;;;;;;;;;6.20;99.90;;;;;;4986927;28;19920;-61
2022/04/30 04:02:00;;;;;;;;;;;6.30;99.90;;;;;;4988250;28;20324;-61
2022/04/30 04:04:27;;;;;;;;;;;6.20;99.90;;;;;;4988961;28;19974;-61
2022/04/30 04:06:53;;;;;;;;;;;6.30;99.90;;;;;;4985808;28;19952;-61
2022/04/30 04:09:18;;;;;;;;;;;6.20;99.90;;;;;;4988109;28;19953;-61
2022/04/30 04:11:44;;;;;;;;;;;6.20;99.90;;;;;;5019440;28;19917;-61
2022/04/30 04:19:38;;;;;;;;;;;6.20;99.90;;;;;;4987106;28;19916;-59
2022/04/30 04:22:03;;;;;;;;;;;6.30;99.90;;;;;;4987156;28;20343;-61
2022/04/30 04:27:14;;;;;;;;;;;6.60;99.90;;;;;;4987190;28;19916;-59
2022/04/30 04:29:40;;;;;;;;;;;6.40;99.90;;;;;;4985698;28;19968;-60
2022/04/30 04:32:05;;;;;;;;;;;6.30;99.90;;;;;;4991255;28;19926;-60
2022/04/30 04:34:31;;;;;;;;;;;6.20;99.90;;;;;;4988042;28;19915;-61
2022/04/30 04:36:56;;;;;;;;;;;6.40;99.90;;;;;;4980160;28;19909;-60
2022/04/30 04:39:22;;;;;;;;;;;6.30;99.90;;;;;;4987893;28;20277;-59
2022/04/30 04:41:47;;;;;;;;;;;6.30;99.90;;;;;;4988435;28;19910;-62
2022/04/30 04:44:13;;;;;;;;;;;6.40;99.90;;;;;;4984879;28;19920;-62
2022/04/30 04:46:39;;;;;;;;;;;6.40;99.90;;;;;;4988689;28;19910;-62
2022/04/30 04:49:05;;;;;;;;;;;6.50;99.90;;;;;;4987968;28;19909;-61
2022/04/30 04:51:30;;;;;;;;;;;6.40;99.90;;;;;;4986671;28;20448;-59
2022/04/30 04:53:56;;;;;;;;;;;6.40;99.90;;;;;;4988719;28;19909;-60
2022/04/30 04:56:22;;;;;;;;;;;6.60;99.90;;;;;;4990827;28;20528;-59
2022/04/30 04:58:47;;;;;;;;;;;6.60;99.90;;;;;;4988511;28;20358;-59
2022/04/30 05:01:13;;;;;;;;;;;6.60;99.90;;;;;;4987824;28;19960;-60
2022/04/30 05:03:38;;;;;;;;;;;6.50;99.90;;;;;;4989007;28;19931;-59
2022/04/30 05:06:04;;;;;;;;;;;6.50;99.90;;;;;;4988496;28;19914;-60
2022/04/30 05:08:30;;;;;;;;;;;6.30;99.90;;;;;;4984657;28;19913;-61
2022/04/30 05:10:55;;;;;;;;;;;6.30;99.90;;;;;;4987217;28;20464;-61
2022/04/30 05:13:21;;;;;;;;;;;6.50;99.90;;;;;;4985596;28;19909;-60
2022/04/30 05:15:46;;;;;;;;;;;6.30;99.90;;;;;;4988893;28;19937;-61
2022/04/30 05:18:12;;;;;;;;;;;6.30;99.90;;;;;;4981786;28;19910;-61
2022/04/30 05:20:38;;;;;;;;;;;6.30;99.90;;;;;;4987312;28;19913;-61
2022/04/30 05:23:04;;;;;;;;;;;6.40;99.90;;;;;;4985678;28;19996;-60
2022/04/30 05:25:29;;;;;;;;;;;6.30;99.90;;;;;;4984836;28;20044;-61
2022/04/30 05:27:56;;;;;;;;;;;6.40;99.90;;;;;;4985731;28;19909;-59
2022/04/30 05:30:22;;;;;;;;;;;6.40;99.90;;;;;;4985454;28;19996;-60
2022/04/30 05:32:47;;;;;;;;;;;6.30;99.90;;;;;;4984668;28;20008;-59
2022/04/30 05:35:13;;;;;;;;;;;6.40;99.90;;;;;;4986367;28;19910;-61
2022/04/30 05:37:40;;;;;;;;;;;6.40;99.90;;;;;;4989266;28;20418;-61
2022/04/30 05:40:06;;;;;;;;;;;6.30;99.90;;;;;;4986617;28;19917;-61
2022/04/30 05:42:31;;;;;;;;;;;6.30;99.90;;;;;;4987048;28;19910;-61
2022/04/30 05:44:57;;;;;;;;;;;6.40;99.90;;;;;;4987305;28;19913;-61
2022/04/30 05:47:23;;;;;;;;;;;6.40;99.90;;;;;;4986489;28;19916;-61
2022/04/30 05:49:49;;;;;;;;;;;6.50;99.90;;;;;;4984768;28;19910;-60
2022/04/30 05:52:14;;;;;;;;;;;6.80;99.90;;;;;;4986298;28;19917;-61
2022/04/30 05:54:40;;;;;;;;;;;7.00;99.90;;;;;;4982643;28;19940;-61
2022/04/30 05:57:05;;;;;;;;;;;7.00;99.90;;;;;;4985407;28;19910;-61
2022/04/30 05:59:31;;;;;;;;;;;6.90;99.90;;;;;;4983257;28;20358;-61
2022/04/30 06:01:56;;;;;;;;;;;6.70;99.90;;;;;;4985025;28;19914;-61
2022/04/30 06:04:22;;;;;;;;;;;7.00;99.90;;;;;;4985793;28;19960;-61
2022/04/30 06:06:47;;;;;;;;;;;7.10;99.90;;;;;;4992808;28;19910;-61
2022/04/30 06:09:13;;;;;;;;;;;7.00;99.90;;;;;;4985234;28;19936;-61
2022/04/30 06:11:39;;;;;;;;;;;7.00;99.90;;;;;;4981673;28;19957;-61
2022/04/30 06:14:04;;;;;;;;;;;6.90;99.90;;;;;;4985849;28;20389;-61
2022/04/30 06:16:30;;;;;;;;;;;7.00;99.90;;;;;;4984912;28;19906;-61
2022/04/30 06:18:55;;;;;;;;;;;7.00;99.90;;;;;;4984720;28;19909;-61
2022/04/30 06:21:23;;;;;;;;;;;7.10;99.90;;;;;;4981278;28;20392;-65
2022/04/30 06:23:48;;;;;;;;;;;7.20;99.90;;;;;;4985600;28;19917;-64
2022/04/30 06:26:14;;;;;;;;;;;7.10;99.90;;;;;;4981785;28;19914;-70
2022/04/30 06:28:39;;;;;;;;;;;7.40;99.90;;;;;;4990859;28;19913;-68
2022/04/30 06:31:05;;;;;;;;;;;7.30;99.90;;;;;;4985601;28;20610;-69
2022/04/30 06:33:30;;;;;;;;;;;7.40;99.90;;;;;;4985976;28;19917;-66
2022/04/30 06:35:56;;;;;;;;;;;7.60;99.90;;;;;;4984714;28;20391;-68
2022/04/30 06:38:21;;;;;;;;;;;8.00;99.90;;;;;;4985973;28;20377;-67
2022/04/30 06:40:48;;;;;;;;;;;8.00;99.90;;;;;;4986238;28;19910;-67
2022/04/30 06:43:13;;;;;;;;;;;8.00;99.90;;;;;;4985961;28;19916;-64
2022/04/30 06:45:39;;;;;;;;;;;8.50;99.90;;;;;;4985922;28;20380;-62
2022/04/30 06:48:04;;;;;;;;;;;8.90;99.90;;;;;;4981256;28;20400;-62
2022/04/30 06:50:30;;;;;;;;;;;8.50;99.90;;;;;;4985144;28;20285;-61
2022/04/30 06:58:24;;;;;;;;;;;8.90;99.90;;;;;;4983641;28;19956;-62
2022/04/30 07:03:27;;;;;;;;;;;8.70;99.90;;;;;;4986143;28;19917;-60
2022/04/30 07:06:03;;;;;;;;;;;8.80;99.90;;;;;;4986580;28;19920;-61
2022/04/30 07:08:31;;;;;;;;;;;8.70;99.90;;;;;;4983651;28;19916;-62
2022/04/30 07:10:56;;;;;;;;;;;8.90;99.90;;;;;;4982724;28;19953;-62
2022/04/30 07:13:22;;;;;;;;;;;9.20;99.90;;;;;;4985889;28;19949;-62
2022/04/30 07:15:47;;;;;;;;;;;9.30;99.90;;;;;;4992995;28;19916;-61
2022/04/30 07:18:13;;;;;;;;;;;9.40;99.90;;;;;;4984843;28;20368;-62
2022/04/30 07:20:39;;;;;;;;;;;9.80;99.90;;;;;;4983491;28;19914;-65
2022/04/30 07:23:04;;;;;;;;;;;9.90;99.90;;;;;;4985008;28;19913;-61
2022/04/30 07:25:30;;;;;;;;;;;10.30;99.90;;;;;;4985986;28;20408;-60
2022/04/30 07:27:55;;;;;;;;;;;10.40;99.90;;;;;;4985783;28;19916;-61
2022/04/30 07:30:21;;;;;;;;;;;10.00;99.90;;;;;;4986224;28;20589;-60
2022/04/30 07:32:46;;;;;;;;;;;10.40;99.90;;;;;;4989745;28;20382;-61
2022/04/30 07:35:12;;;;;;;;;;;10.90;99.90;;;;;;4988976;28;19955;-60
2022/04/30 07:37:37;;;;;;;;;;;10.90;99.90;;;;;;4992022;28;20369;-60
2022/04/30 07:40:03;;;;;;;;;;;11.10;99.90;;;;;;4990677;28;19910;-60
2022/04/30 07:42:28;;;;;;;;;;;10.70;99.90;;;;;;4985330;28;19910;-61
2022/04/30 07:44:59;;;;;;;;;;;10.90;99.90;;;;;;4988997;28;20282;-60
2022/04/30 07:47:25;;;;;;;;;;;10.90;99.90;;;;;;4990368;28;19996;-60
2022/04/30 07:49:51;;;;;;;;;;;10.20;99.90;;;;;;4989246;28;20325;-60
2022/04/30 07:52:16;;;;;;;;;;;10.30;99.90;;;;;;4989119;28;19909;-60
2022/04/30 07:54:43;;;;;;;;;;;10.10;99.90;;;;;;5020000;28;19918;-60
2022/04/30 07:57:08;;;;;;;;;;;10.40;99.90;;;;;;4989086;28;19910;-60
2022/04/30 07:59:34;;;;;;;;;;;10.40;99.90;;;;;;4987330;28;19920;-60
2022/04/30 08:01:59;;;;;;;;;;;10.40;99.90;;;;;;4988564;28;19944;-60
2022/04/30 08:04:25;;;;;;;;;;;10.70;99.90;;;;;;4988955;28;19918;-60
2022/04/30 08:06:50;;;;;;;;;;;11.10;99.90;;;;;;4989137;28;19909;-60
2022/04/30 08:09:16;;;;;;;;;;;11.20;99.90;;;;;;4988000;28;19945;-60
2022/04/30 08:11:41;;;;;;;;;;;11.10;99.90;;;;;;4988966;28;20379;-59
2022/04/30 08:14:07;;;;;;;;;;;11.50;99.90;;;;;;4988563;28;19910;-60
2022/04/30 08:16:32;;;;;;;;;;;10.70;99.90;;;;;;4988455;28;19929;-59
2022/04/30 08:18:58;;;;;;;;;;;10.80;99.90;;;;;;4990885;28;20274;-59
2022/04/30 08:21:24;;;;;;;;;;;10.50;99.90;;;;;;4991167;28;20000;-59
2022/04/30 08:23:49;;;;;;;;;;;11.10;99.90;;;;;;4983822;28;19944;-59
2022/04/30 08:26:16;;;;;;;;;;;11.00;99.90;;;;;;4988010;28;20416;-60
2022/04/30 08:28:41;;;;;;;;;;;10.60;99.90;;;;;;4988449;28;19910;-59
2022/04/30 08:31:07;;;;;;;;;;;11.00;99.90;;;;;;4988179;28;20389;-60
2022/04/30 08:33:33;;;;;;;;;;;11.10;99.90;;;;;;4988285;28;19909;-60
2022/04/30 08:35:58;;;;;;;;;;;11.60;99.90;;;;;;4988076;28;20350;-59
2022/04/30 08:38:24;;;;;;;;;;;12.30;99.90;;;;;;4985715;28;19921;-59
2022/04/30 08:40:49;;;;;;;;;;;12.20;99.90;;;;;;4987543;28;19953;-59
2022/04/30 08:43:15;;;;;;;;;;;13.40;99.90;;;;;;5019203;28;19910;-60
2022/04/30 08:45:42;;;;;;;;;;;12.80;99.90;;;;;;4988500;28;19914;-59
2022/04/30 08:48:09;;;;;;;;;;;13.60;99.90;;;;;;4985182;28;20322;-59
2022/04/30 08:50:35;;;;;;;;;;;13.80;99.90;;;;;;4987787;28;20474;-59
2022/04/30 08:53:00;;;;;;;;;;;14.70;99.90;;;;;;4986410;28;19913;-60
2022/04/30 08:55:26;;;;;;;;;;;15.50;99.90;;;;;;4987073;28;20552;-60
2022/04/30 08:57:52;;;;;;;;;;;14.50;99.70;;;;;;4988718;28;19913;-60
2022/04/30 09:00:17;;;;;;;;;;;15.70;99.90;;;;;;4988845;28;19914;-60
2022/04/30 09:02:53;;;;;;;;;;;15.30;98.40;;;;;;4989241;28;20337;-59
2022/04/30 09:05:19;;;;;;;;;;;14.80;99.90;;;;;;4986554;28;20044;-60
2022/04/30 09:07:58;;;;;;;;;;;15.20;99.90;;;;;;4989230;28;20000;-60
2022/04/30 09:10:24;;;;;;;;;;;15.30;99.90;;;;;;4984900;28;19913;-59
2022/04/30 09:12:51;;;;;;;;;;;14.00;99.10;;;;;;4987922;28;20000;-59
2022/04/30 09:15:16;;;;;;;;;;;13.10;99.90;;;;;;4985621;28;20285;-60
2022/04/30 09:17:42;;;;;;;;;;;13.60;99.90;;;;;;4987383;28;19910;-60
2022/04/30 09:20:08;;;;;;;;;;;13.90;99.90;;;;;;4986678;28;19910;-59
2022/04/30 09:22:34;;;;;;;;;;;13.90;99.90;;;;;;4987806;28;19910;-60
2022/04/30 09:25:00;;;;;;;;;;;14.00;99.50;;;;;;4986820;28;20016;-60
2022/04/30 09:27:26;;;;;;;;;;;14.00;99.30;;;;;;4987461;28;19909;-60
2022/04/30 09:29:52;;;;;;;;;;;13.10;99.90;;;;;;4985419;28;19913;-60
2022/04/30 09:32:19;;;;;;;;;;;13.20;99.90;;;;;;4986883;28;19972;-59
2022/04/30 09:37:41;;;;;;;;;;;12.90;99.90;;;;;;4985438;28;19995;-60
2022/04/30 09:40:25;;;;;;;;;;;14.00;99.90;;;;;;4989988;28;19909;-59
2022/04/30 09:42:50;;;;;;;;;;;15.10;98.10;;;;;;4987573;28;19921;-60
2022/04/30 09:45:23;;;;;;;;;;;15.80;96.50;;;;;;4987288;28;19913;-60
2022/04/30 09:47:49;;;;;;;;;;;15.10;96.60;;;;;;4985040;28;19906;-60
2022/04/30 09:55:47;;;;;;;;;;;15.10;99.90;;;;;;4987482;28;19956;-59
2022/04/30 09:58:15;;;;;;;;;;;14.70;97.90;;;;;;4984426;28;20321;-59
2022/04/30 10:00:41;;;;;;;;;;;12.80;99.90;;;;;;4987854;28;19992;-60
2022/04/30 10:03:08;;;;;;;;;;;14.10;99.20;;;;;;4986535;28;20008;-60
2022/04/30 10:05:36;;;;;;;;;;;14.30;99.50;;;;;;4986939;28;19913;-60
2022/04/30 10:08:02;;;;;;;;;;;16.30;97.00;;;;;;4985635;28;19913;-60
2022/04/30 10:10:45;;;;;;;;;;;15.50;97.70;;;;;;4985985;28;19909;-60
2022/04/30 10:13:17;;;;;;;;;;;15.50;96.70;;;;;;4984423;28;19918;-60
2022/04/30 10:15:49;;;;;;;;;;;16.60;95.30;;;;;;4985704;28;19945;-60
2022/04/30 10:18:17;;;;;;;;;;;16.20;94.90;;;;;;4985709;28;20374;-60
2022/04/30 10:20:49;;;;;;;;;;;16.30;95.10;;;;;;4988940;28;19952;-60
2022/04/30 10:23:16;;;;;;;;;;;16.70;95.10;;;;;;4987376;28;19917;-60
2022/04/30 10:25:42;;;;;;;;;;;16.50;94.40;;;;;;4984468;28;20000;-60
2022/04/30 10:28:18;;;;;;;;;;;19.90;93.10;;;;;;4975623;28;19993;-60
2022/04/30 10:30:44;;;;;;;;;;;21.60;87.70;;;;;;4984884;28;19914;-60
2022/04/30 10:33:10;;;;;;;;;;;20.10;83.40;;;;;;4985810;28;19918;-60
2022/04/30 10:35:37;;;;;;;;;;;17.20;90.40;;;;;;4985259;28;19917;-60
2022/04/30 10:38:07;;;;;;;;;;;16.90;90.70;;;;;;4986036;28;20443;-60
2022/04/30 10:40:45;;;;;;;;;;;16.90;90.70;;;;;;4983853;28;19916;-60
2022/04/30 10:43:40;;;;;;;;;;;16.90;90.60;;;;;;4984594;28;19936;-60
2022/04/30 10:46:26;;;;;;;;;;;17.80;90.10;;;;;;4983398;28;20293;-60
2022/04/30 10:48:51;;;;;;;;;;;18.80;89.70;;;;;;4984731;28;19913;-60
2022/04/30 10:51:40;;;;;;;;;;;16.90;90.10;;;;;;4984993;28;19916;-59
2022/04/30 10:54:09;;;;;;;;;;;18.10;91.30;;;;;;4984952;28;19932;-60
2022/04/30 10:56:34;;;;;;;;;;;16.50;92.10;;;;;;4985925;28;19963;-60
2022/04/30 10:59:00;;;;;;;;;;;15.40;92.30;;;;;;4982573;28;19910;-60
2022/04/30 11:01:25;;;;;;;;;;;14.70;93.60;;;;;;4988921;28;19914;-60
2022/04/30 11:03:51;;;;;;;;;;;13.50;94.70;;;;;;4987961;28;20391;-59
2022/04/30 11:06:19;;;;;;;;;;;13.50;95.60;;;;;;4985392;28;19956;-60
2022/04/30 11:08:54;;;;;;;;;;;15.20;94.20;;;;;;4986556;28;19909;-60
2022/04/30 11:11:20;;;;;;;;;;;16.70;92.20;;;;;;4979899;28;20291;-60
2022/04/30 11:13:53;;;;;;;;;;;17.70;92.50;;;;;;4985338;28;20440;-60
2022/04/30 11:16:19;;;;;;;;;;;18.90;88.70;;;;;;4982776;28;20380;-60
2022/04/30 11:18:44;;;;;;;;;;;17.30;89.90;;;;;;4984408;28;19910;-60
2022/04/30 11:21:10;;;;;;;;;;;17.90;90.30;;;;;;4980889;28;20238;-60
2022/04/30 11:23:35;;;;;;;;;;;17.30;90.20;;;;;;4987815;28;19920;-60
2022/04/30 11:26:01;;;;;;;;;;;16.20;91.50;;;;;;5015299;28;19937;-60
2022/04/30 11:28:29;;;;;;;;;;;15.70;91.20;;;;;;4985039;28;19910;-60
2022/04/30 11:30:59;;;;;;;;;;;15.80;92.40;;;;;;4982695;28;20286;-60
2022/04/30 11:33:36;;;;;;;;;;;17.80;92.30;;;;;;4986960;28;19913;-60
2022/04/30 11:36:02;;;;;;;;;;;18.40;88.20;;;;;;4978770;28;19968;-59
2022/04/30 11:38:28;;;;;;;;;;;16.50;90.90;;;;;;4985670;28;19917;-60
2022/04/30 11:41:01;;;;;;;;;;;16.10;91.40;;;;;;4987600;28;20016;-60
2022/04/30 11:43:26;;;;;;;;;;;16.90;91.70;;;;;;4994109;28;20361;-60
2022/04/30 11:45:57;;;;;;;;;;;16.60;90.50;;;;;;4987100;28;19964;-60
2022/04/30 11:48:24;;;;;;;;;;;18.30;88.00;;;;;;4988099;28;20258;-60
2022/04/30 11:50:50;;;;;;;;;;;18.90;90.30;;;;;;4988799;28;19912;-60
2022/04/30 11:53:15;;;;;;;;;;;17.60;90.70;;;;;;4985518;28;19909;-60
2022/04/30 11:55:41;;;;;;;;;;;17.40;88.10;;;;;;4987022;28;20333;-60
2022/04/30 11:58:07;;;;;;;;;;;16.30;90.40;;;;;;4985720;28;19910;-60
2022/04/30 12:00:34;;;;;;;;;;;16.20;90.30;;;;;;4985184;28;19909;-60
2022/04/30 12:02:59;;;;;;;;;;;17.40;90.70;;;;;;4984600;28;19922;-60
2022/04/30 12:05:24;;;;;;;;;;;16.90;89.70;;;;;;4984682;28;19936;-60
2022/04/30 12:07:50;;;;;;;;;;;17.90;90.80;;;;;;4987070;28;19918;-60
2022/04/30 12:10:19;;;;;;;;;;;20.30;85.50;;;;;;4986361;28;20337;-60
2022/04/30 12:12:45;;;;;;;;;;;19.90;84.50;;;;;;4989185;28;19910;-60
2022/04/30 12:15:21;;;;;;;;;;;22.40;79.20;;;;;;4987583;28;19914;-60
2022/04/30 12:24:40;;;;;;;;;;;22.10;75.20;;;;;;4985468;28;19910;-60
2022/04/30 12:26:05;;;;;;;;;;;16.80;87.00;;;;;;4986514;28;19933;-60
2022/04/30 12:28:42;;;;;;;;;;;18.00;85.90;;;;;;4987137;28;19913;-60
2022/04/30 12:31:09;;;;;;;;;;;20.20;80.60;;;;;;4986830;28;19929;-60
2022/04/30 12:33:41;;;;;;;;;;;21.00;78.70;;;;;;4987601;28;19911;-60
2022/04/30 12:36:10;;;;;;;;;;;21.00;79.00;;;;;;4987440;28;19914;-60
2022/04/30 12:38:36;;;;;;;;;;;20.20;77.10;;;;;;4986647;28;19915;-60
2022/04/30 12:41:01;;;;;;;;;;;19.30;80.20;;;;;;4989476;28;19952;-60
2022/04/30 12:43:31;;;;;;;;;;;21.10;79.60;;;;;;4991146;28;19909;-60
2022/04/30 12:45:56;;;;;;;;;;;21.10;76.70;;;;;;4987795;28;20363;-60
2022/04/30 12:48:22;;;;;;;;;;;19.30;78.90;;;;;;4985813;28;19914;-60
2022/04/30 12:50:47;;;;;;;;;;;17.80;82.30;;;;;;4984511;28;19916;-60
2022/04/30 12:53:13;;;;;;;;;;;16.60;84.90;;;;;;4986736;28;19910;-60
2022/04/30 12:55:39;;;;;;;;;;;16.20;86.30;;;;;;4988310;28;19976;-60
2022/04/30 12:58:05;;;;;;;;;;;16.50;87.70;;;;;;4983310;28;20344;-60
2022/04/30 13:00:32;;;;;;;;;;;17.20;86.30;;;;;;4988845;28;20008;-60
2022/04/30 13:02:58;;;;;;;;;;;16.10;85.40;;;;;;4990757;28;19919;-60
2022/04/30 13:05:24;;;;;;;;;;;16.90;85.90;;;;;;4989103;28;19918;-59
2022/04/30 13:07:49;;;;;;;;;;;17.20;89.30;;;;;;4988048;28;19920;-59
2022/04/30 13:15:44;;;;;;;;;;;16.80;86.90;;;;;;4982768;28;19917;-60
2022/04/30 13:18:10;;;;;;;;;;;16.00;87.40;;;;;;4987344;28;20293;-59
2022/04/30 13:20:35;;;;;;;;;;;15.50;89.30;;;;;;4988519;28;19916;-60
2022/04/30 13:23:01;;;;;;;;;;;15.00;90.10;;;;;;4988334;28;19910;-59
2022/04/30 13:25:28;;;;;;;;;;;15.00;90.20;;;;;;4987820;28;19920;-59
2022/04/30 13:27:55;;;;;;;;;;;14.90;90.10;;;;;;4988357;28;19924;-59
2022/04/30 13:30:21;;;;;;;;;;;16.10;89.50;;;;;;4986036;28;19941;-59
2022/04/30 13:32:48;;;;;;;;;;;18.10;86.10;;;;;;4987213;28;20294;-59
2022/04/30 13:35:14;;;;;;;;;;;18.40;83.90;;;;;;4987636;28;19924;-60
2022/04/30 13:37:42;;;;;;;;;;;18.90;80.40;;;;;;4990136;28;19914;-60
2022/04/30 13:40:12;;;;;;;;;;;20.80;80.50;;;;;;4985927;28;20814;-59
2022/04/30 13:42:38;;;;;;;;;;;22.20;75.30;;;;;;4991070;28;20285;-60
2022/04/30 13:45:04;;;;;;;;;;;21.30;78.80;;;;;;4991668;28;19929;-60
2022/04/30 13:47:30;;;;;;;;;;;19.20;79.70;;;;;;4985595;28;19909;-59
2022/04/30 13:49:55;;;;;;;;;;;18.10;82.20;;;;;;4988137;28;19972;-59
2022/04/30 13:52:21;;;;;;;;;;;17.20;82.80;;;;;;4988098;28;19910;-59
2022/04/30 13:54:47;;;;;;;;;;;16.40;82.00;;;;;;4987429;28;19910;-59
2022/04/30 13:57:13;;;;;;;;;;;16.40;83.20;;;;;;4990588;28;19912;-59
2022/04/30 13:59:38;;;;;;;;;;;16.10;84.80;;;;;;4986326;28;19921;-59
2022/04/30 14:02:04;;;;;;;;;;;16.00;84.60;;;;;;4988846;28;19917;-59
2022/04/30 14:04:30;;;;;;;;;;;16.40;87.10;;;;;;4988670;28;20300;-59
2022/04/30 14:06:59;;;;;;;;;;;16.70;84.10;;;;;;4990375;28;19914;-59
2022/04/30 14:09:24;;;;;;;;;;;17.60;81.80;;;;;;4987969;28;20055;-59
2022/04/30 14:11:50;;;;;;;;;;;17.20;82.90;;;;;;4986985;28;20004;-60
2022/04/30 14:17:01;;;;;;;;;;;16.00;85.10;;;;;;4985722;28;19925;-59
2022/04/30 14:19:27;;;;;;;;;;;16.00;85.30;;;;;;4986869;28;19916;-59
2022/04/30 14:21:53;;;;;;;;;;;16.30;85.20;;;;;;4990706;28;20515;-59
2022/04/30 14:24:18;;;;;;;;;;;16.40;84.60;;;;;;4990769;28;19937;-59
2022/04/30 14:26:47;;;;;;;;;;;16.50;84.20;;;;;;4989654;28;19913;-59
2022/04/30 14:29:13;;;;;;;;;;;15.70;85.40;;;;;;4981791;28;20383;-59
2022/04/30 14:31:39;;;;;;;;;;;15.70;84.60;;;;;;4991412;28;20024;-59
2022/04/30 14:34:05;;;;;;;;;;;16.00;85.80;;;;;;4986715;28;20779;-59
2022/04/30 14:36:33;;;;;;;;;;;16.30;86.40;;;;;;4985072;28;19917;-59
2022/04/30 14:38:59;;;;;;;;;;;17.90;80.10;;;;;;4989569;28;19985;-59
2022/04/30 14:41:24;;;;;;;;;;;18.50;80.10;;;;;;4982999;28;20060;-59
2022/04/30 14:43:50;;;;;;;;;;;18.10;80.20;;;;;;4986590;28;19929;-59
2022/04/30 14:46:15;;;;;;;;;;;18.40;79.30;;;;;;4985657;28;19913;-59
2022/04/30 14:48:41;;;;;;;;;;;18.00;80.10;;;;;;4987246;28;20028;-59
2022/04/30 14:51:06;;;;;;;;;;;19.00;78.80;;;;;;4987921;28;19924;-59
2022/04/30 14:53:32;;;;;;;;;;;17.60;80.60;;;;;;4987188;28;20638;-59
2022/04/30 14:55:57;;;;;;;;;;;17.20;82.00;;;;;;4988734;28;20004;-59
2022/04/30 14:58:23;;;;;;;;;;;17.80;79.90;;;;;;4985420;28;20678;-59
2022/04/30 15:00:49;;;;;;;;;;;18.30;79.90;;;;;;4987157;28;19937;-59
2022/04/30 15:03:14;;;;;;;;;;;17.50;78.70;;;;;;4985989;28;19917;-59
2022/04/30 15:05:41;;;;;;;;;;;16.40;80.60;;;;;;4987337;28;20293;-59
2022/04/30 15:08:06;;;;;;;;;;;16.00;82.50;;;;;;4986620;28;19917;-59
2022/04/30 15:10:32;;;;;;;;;;;15.80;82.10;;;;;;5020229;28;19910;-59
2022/04/30 15:12:58;;;;;;;;;;;15.50;83.30;;;;;;4988774;28;19988;-59
2022/04/30 15:15:24;;;;;;;;;;;15.70;84.30;;;;;;4986903;28;20305;-59